sensor_id;sensor_type;location;lat;lon;timestamp;P1;durP1;ratioP1;P2;durP2;ratioP2
50779;SDS011;36748;37.428;-121.972;2022-09-06T00:00:08;6.38;;;4.72;;
50779;SDS011;36748;37.428;-121.972;2022-09-06T00:02:37;8.15;;;4.55;;
50779;SDS011;36748;37.428;-121.972;2022-09-06T00:05:04;8.27;;;4.85;;
50779;SDS011;36748;37.428;-121.972;2022-09-06T00:07:30;7.93;;;4.70;;
50779;SDS011;36748;37.428;-121.972;2022-09-06T00:09:57;8.73;;;5.00;;
50779;SDS011;36748;37.428;-121.972;2022-09-06T00:12:23;8.90;;;4.88;;
50779;SDS011;36748;37.428;-121.972;2022-09-06T00:14:50;8.05;;;4.68;;
50779;SDS011;36748;37.428;-121.972;2022-09-06T00:17:16;9.02;;;4.53;;
50779;SDS011;36748;37.428;-121.972;2022-09-06T00:19:42;7.97;;;4.70;;
50779;SDS011;36748;37.428;-121.972;2022-09-06T00:22:29;8.35;;;4.68;;
50779;SDS011;36748;37.428;-121.972;2022-09-06T00:24:55;6.88;;;4.70;;
50779;SDS011;36748;37.428;-121.972;2022-09-06T00:27:21;7.65;;;4.68;;
50779;SDS011;36748;37.428;-121.972;2022-09-06T00:29:47;6.63;;;4.35;;
50779;SDS011;36748;37.428;-121.972;2022-09-06T00:32:14;7.35;;;4.75;;
50779;SDS011;36748;37.428;-121.972;2022-09-06T00:34:44;5.93;;;4.68;;
50779;SDS011;36748;37.428;-121.972;2022-09-06T00:40:06;7.45;;;4.70;;
50779;SDS011;36748;37.428;-121.972;2022-09-06T00:42:55;7.63;;;4.30;;
50779;SDS011;36748;37.428;-121.972;2022-09-06T00:45:23;9.13;;;4.78;;
50779;SDS011;36748;37.428;-121.972;2022-09-06T00:47:50;9.35;;;4.53;;
50779;SDS011;36748;37.428;-121.972;2022-09-06T00:50:17;5.82;;;4.47;;
50779;SDS011;36748;37.428;-121.972;2022-09-06T00:52:44;6.82;;;4.72;;
50779;SDS011;36748;37.428;-121.972;2022-09-06T00:55:12;6.90;;;4.50;;
50779;SDS011;36748;37.428;-121.972;2022-09-06T00:57:38;6.97;;;4.60;;
50779;SDS011;36748;37.428;-121.972;2022-09-06T01:00:05;6.50;;;4.47;;
50779;SDS011;36748;37.428;-121.972;2022-09-06T01:02:33;6.00;;;4.03;;
50779;SDS011;36748;37.428;-121.972;2022-09-06T01:05:05;6.05;;;3.92;;
50779;SDS011;36748;37.428;-121.972;2022-09-06T01:07:39;6.05;;;4.13;;
50779;SDS011;36748;37.428;-121.972;2022-09-06T01:10:24;6.05;;;4.38;;
50779;SDS011;36748;37.428;-121.972;2022-09-06T01:18:59;5.90;;;4.25;;
50779;SDS011;36748;37.428;-121.972;2022-09-06T01:22:08;5.20;;;3.90;;
50779;SDS011;36748;37.428;-121.972;2022-09-06T01:27:28;6.15;;;4.00;;
50779;SDS011;36748;37.428;-121.972;2022-09-06T01:30:01;5.75;;;4.07;;
50779;SDS011;36748;37.428;-121.972;2022-09-06T01:32:46;7.38;;;4.15;;
50779;SDS011;36748;37.428;-121.972;2022-09-06T01:37:56;5.35;;;3.88;;
50779;SDS011;36748;37.428;-121.972;2022-09-06T01:40:23;5.00;;;3.72;;
50779;SDS011;36748;37.428;-121.972;2022-09-06T01:42:50;6.45;;;4.43;;
50779;SDS011;36748;37.428;-121.972;2022-09-06T01:45:22;4.88;;;4.30;;
50779;SDS011;36748;37.428;-121.972;2022-09-06T02:02:31;4.45;;;3.78;;
50779;SDS011;36748;37.428;-121.972;2022-09-06T02:05:26;4.50;;;3.80;;
50779;SDS011;36748;37.428;-121.972;2022-09-06T02:08:16;4.75;;;3.83;;
50779;SDS011;36748;37.428;-121.972;2022-09-06T02:10:52;5.85;;;3.65;;
50779;SDS011;36748;37.428;-121.972;2022-09-06T02:13:22;4.72;;;3.83;;
50779;SDS011;36748;37.428;-121.972;2022-09-06T02:15:55;3.97;;;3.50;;
50779;SDS011;36748;37.428;-121.972;2022-09-06T02:18:29;4.07;;;3.58;;
50779;SDS011;36748;37.428;-121.972;2022-09-06T02:21:07;4.13;;;3.17;;
50779;SDS011;36748;37.428;-121.972;2022-09-06T02:23:37;4.20;;;3.45;;
50779;SDS011;36748;37.428;-121.972;2022-09-06T02:26:06;3.65;;;3.33;;
50779;SDS011;36748;37.428;-121.972;2022-09-06T02:28:44;5.38;;;3.90;;
50779;SDS011;36748;37.428;-121.972;2022-09-06T02:31:17;4.45;;;3.33;;
50779;SDS011;36748;37.428;-121.972;2022-09-06T02:36:12;4.30;;;3.33;;
50779;SDS011;36748;37.428;-121.972;2022-09-06T02:38:40;4.63;;;3.55;;
50779;SDS011;36748;37.428;-121.972;2022-09-06T02:41:07;4.03;;;3.33;;
50779;SDS011;36748;37.428;-121.972;2022-09-06T02:43:34;5.45;;;3.67;;
50779;SDS011;36748;37.428;-121.972;2022-09-06T02:46:00;5.28;;;3.60;;
50779;SDS011;36748;37.428;-121.972;2022-09-06T02:48:27;4.28;;;3.40;;
50779;SDS011;36748;37.428;-121.972;2022-09-06T02:50:53;5.47;;;3.70;;
50779;SDS011;36748;37.428;-121.972;2022-09-06T02:53:19;3.67;;;3.20;;
50779;SDS011;36748;37.428;-121.972;2022-09-06T02:55:46;3.97;;;3.28;;
50779;SDS011;36748;37.428;-121.972;2022-09-06T02:58:13;3.28;;;2.97;;
50779;SDS011;36748;37.428;-121.972;2022-09-06T03:00:40;6.30;;;3.78;;
50779;SDS011;36748;37.428;-121.972;2022-09-06T03:03:06;4.95;;;3.00;;
50779;SDS011;36748;37.428;-121.972;2022-09-06T03:05:33;5.40;;;3.58;;
50779;SDS011;36748;37.428;-121.972;2022-09-06T03:07:59;4.40;;;3.20;;
50779;SDS011;36748;37.428;-121.972;2022-09-06T03:10:25;3.60;;;3.25;;
50779;SDS011;36748;37.428;-121.972;2022-09-06T03:12:52;4.78;;;3.30;;
50779;SDS011;36748;37.428;-121.972;2022-09-06T03:15:18;4.40;;;3.50;;
50779;SDS011;36748;37.428;-121.972;2022-09-06T03:17:44;4.68;;;3.30;;
50779;SDS011;36748;37.428;-121.972;2022-09-06T03:20:11;5.82;;;3.20;;
50779;SDS011;36748;37.428;-121.972;2022-09-06T03:22:37;5.05;;;3.63;;
50779;SDS011;36748;37.428;-121.972;2022-09-06T03:25:08;4.65;;;3.25;;
50779;SDS011;36748;37.428;-121.972;2022-09-06T03:27:34;6.72;;;3.25;;
50779;SDS011;36748;37.428;-121.972;2022-09-06T03:30:01;4.38;;;3.22;;
50779;SDS011;36748;37.428;-121.972;2022-09-06T03:32:27;7.13;;;3.70;;
50779;SDS011;36748;37.428;-121.972;2022-09-06T03:34:53;5.40;;;3.45;;
50779;SDS011;36748;37.428;-121.972;2022-09-06T03:37:19;4.75;;;3.33;;
50779;SDS011;36748;37.428;-121.972;2022-09-06T03:39:46;7.03;;;3.30;;
50779;SDS011;36748;37.428;-121.972;2022-09-06T03:42:12;4.22;;;3.60;;
50779;SDS011;36748;37.428;-121.972;2022-09-06T03:44:38;5.13;;;3.47;;
50779;SDS011;36748;37.428;-121.972;2022-09-06T03:47:04;6.40;;;3.20;;
50779;SDS011;36748;37.428;-121.972;2022-09-06T03:49:31;3.90;;;3.30;;
50779;SDS011;36748;37.428;-121.972;2022-09-06T03:51:57;4.55;;;3.22;;
50779;SDS011;36748;37.428;-121.972;2022-09-06T03:54:23;4.35;;;3.00;;
50779;SDS011;36748;37.428;-121.972;2022-09-06T03:56:50;4.18;;;3.42;;
50779;SDS011;36748;37.428;-121.972;2022-09-06T03:59:16;3.92;;;3.05;;
50779;SDS011;36748;37.428;-121.972;2022-09-06T04:01:42;5.13;;;3.13;;
50779;SDS011;36748;37.428;-121.972;2022-09-06T04:04:08;3.60;;;3.30;;
50779;SDS011;36748;37.428;-121.972;2022-09-06T04:06:40;4.50;;;3.35;;
50779;SDS011;36748;37.428;-121.972;2022-09-06T04:09:15;4.07;;;3.30;;
50779;SDS011;36748;37.428;-121.972;2022-09-06T04:11:44;5.03;;;2.80;;
50779;SDS011;36748;37.428;-121.972;2022-09-06T04:14:13;3.75;;;3.35;;
50779;SDS011;36748;37.428;-121.972;2022-09-06T04:16:39;5.10;;;3.38;;
50779;SDS011;36748;37.428;-121.972;2022-09-06T04:19:09;4.32;;;3.10;;
50779;SDS011;36748;37.428;-121.972;2022-09-06T04:21:37;4.28;;;2.72;;
50779;SDS011;36748;37.428;-121.972;2022-09-06T04:24:07;3.75;;;3.08;;
50779;SDS011;36748;37.428;-121.972;2022-09-06T04:26:33;4.00;;;3.10;;
50779;SDS011;36748;37.428;-121.972;2022-09-06T04:29:00;3.47;;;3.03;;
50779;SDS011;36748;37.428;-121.972;2022-09-06T04:31:26;5.00;;;2.95;;
50779;SDS011;36748;37.428;-121.972;2022-09-06T04:33:55;5.72;;;3.33;;
50779;SDS011;36748;37.428;-121.972;2022-09-06T04:36:21;4.25;;;3.03;;
50779;SDS011;36748;37.428;-121.972;2022-09-06T04:38:51;4.25;;;3.47;;
50779;SDS011;36748;37.428;-121.972;2022-09-06T04:41:20;4.65;;;3.03;;
50779;SDS011;36748;37.428;-121.972;2022-09-06T04:43:54;3.15;;;2.72;;
50779;SDS011;36748;37.428;-121.972;2022-09-06T04:46:26;3.85;;;3.00;;
50779;SDS011;36748;37.428;-121.972;2022-09-06T04:48:59;3.75;;;3.10;;
50779;SDS011;36748;37.428;-121.972;2022-09-06T04:51:25;5.47;;;3.30;;
50779;SDS011;36748;37.428;-121.972;2022-09-06T04:53:54;4.85;;;3.10;;
50779;SDS011;36748;37.428;-121.972;2022-09-06T04:56:21;3.58;;;2.85;;
50779;SDS011;36748;37.428;-121.972;2022-09-06T04:58:49;3.33;;;3.00;;
50779;SDS011;36748;37.428;-121.972;2022-09-06T05:01:19;4.03;;;2.90;;
50779;SDS011;36748;37.428;-121.972;2022-09-06T05:03:50;3.38;;;3.08;;
50779;SDS011;36748;37.428;-121.972;2022-09-06T05:06:23;3.30;;;3.00;;
50779;SDS011;36748;37.428;-121.972;2022-09-06T05:08:49;4.15;;;3.00;;
50779;SDS011;36748;37.428;-121.972;2022-09-06T05:11:16;3.45;;;3.00;;
50779;SDS011;36748;37.428;-121.972;2022-09-06T05:13:47;4.43;;;2.90;;
50779;SDS011;36748;37.428;-121.972;2022-09-06T05:16:32;7.00;;;2.92;;
50779;SDS011;36748;37.428;-121.972;2022-09-06T05:18:58;3.85;;;3.25;;
50779;SDS011;36748;37.428;-121.972;2022-09-06T05:21:27;6.40;;;3.22;;
50779;SDS011;36748;37.428;-121.972;2022-09-06T05:23:59;9.40;;;3.50;;
50779;SDS011;36748;37.428;-121.972;2022-09-06T05:26:25;6.78;;;3.42;;
50779;SDS011;36748;37.428;-121.972;2022-09-06T05:28:51;6.05;;;3.55;;
50779;SDS011;36748;37.428;-121.972;2022-09-06T05:31:24;8.27;;;3.40;;
50779;SDS011;36748;37.428;-121.972;2022-09-06T05:33:54;4.82;;;3.20;;
50779;SDS011;36748;37.428;-121.972;2022-09-06T05:36:25;5.65;;;3.67;;
50779;SDS011;36748;37.428;-121.972;2022-09-06T05:38:57;6.35;;;3.28;;
50779;SDS011;36748;37.428;-121.972;2022-09-06T05:41:24;7.30;;;3.90;;
50779;SDS011;36748;37.428;-121.972;2022-09-06T05:43:53;6.68;;;3.53;;
50779;SDS011;36748;37.428;-121.972;2022-09-06T05:46:25;6.45;;;3.47;;
50779;SDS011;36748;37.428;-121.972;2022-09-06T05:48:57;9.98;;;3.72;;
50779;SDS011;36748;37.428;-121.972;2022-09-06T05:51:32;7.78;;;4.00;;
50779;SDS011;36748;37.428;-121.972;2022-09-06T05:53:58;8.05;;;3.88;;
50779;SDS011;36748;37.428;-121.972;2022-09-06T05:56:24;7.38;;;4.20;;
50779;SDS011;36748;37.428;-121.972;2022-09-06T05:58:54;4.68;;;3.70;;
50779;SDS011;36748;37.428;-121.972;2022-09-06T06:01:24;7.25;;;3.85;;
50779;SDS011;36748;37.428;-121.972;2022-09-06T06:03:51;6.55;;;4.00;;
50779;SDS011;36748;37.428;-121.972;2022-09-06T06:06:20;5.25;;;3.80;;
50779;SDS011;36748;37.428;-121.972;2022-09-06T06:08:46;9.70;;;4.10;;
50779;SDS011;36748;37.428;-121.972;2022-09-06T06:11:15;6.43;;;3.58;;
50779;SDS011;36748;37.428;-121.972;2022-09-06T06:13:42;6.43;;;4.00;;
50779;SDS011;36748;37.428;-121.972;2022-09-06T06:16:09;7.95;;;4.35;;
50779;SDS011;36748;37.428;-121.972;2022-09-06T06:18:37;5.20;;;4.20;;
50779;SDS011;36748;37.428;-121.972;2022-09-06T06:23:43;9.73;;;4.80;;
50779;SDS011;36748;37.428;-121.972;2022-09-06T06:26:14;8.65;;;5.13;;
50779;SDS011;36748;37.428;-121.972;2022-09-06T06:28:43;7.68;;;4.65;;
50779;SDS011;36748;37.428;-121.972;2022-09-06T06:31:12;9.32;;;5.10;;
50779;SDS011;36748;37.428;-121.972;2022-09-06T06:33:39;7.40;;;4.63;;
50779;SDS011;36748;37.428;-121.972;2022-09-06T06:38:41;8.10;;;4.45;;
50779;SDS011;36748;37.428;-121.972;2022-09-06T06:41:11;7.65;;;4.47;;
50779;SDS011;36748;37.428;-121.972;2022-09-06T06:43:42;6.68;;;4.18;;
50779;SDS011;36748;37.428;-121.972;2022-09-06T06:46:09;6.68;;;4.07;;
50779;SDS011;36748;37.428;-121.972;2022-09-06T06:48:37;7.97;;;4.63;;
50779;SDS011;36748;37.428;-121.972;2022-09-06T06:51:12;8.27;;;4.45;;
50779;SDS011;36748;37.428;-121.972;2022-09-06T06:53:42;8.55;;;4.22;;
50779;SDS011;36748;37.428;-121.972;2022-09-06T06:56:22;15.43;;;4.90;;
50779;SDS011;36748;37.428;-121.972;2022-09-06T06:58:50;11.93;;;5.50;;
50779;SDS011;36748;37.428;-121.972;2022-09-06T07:01:18;13.00;;;4.93;;
50779;SDS011;36748;37.428;-121.972;2022-09-06T07:03:45;7.82;;;4.60;;
50779;SDS011;36748;37.428;-121.972;2022-09-06T07:06:12;8.82;;;4.53;;
50779;SDS011;36748;37.428;-121.972;2022-09-06T07:08:38;8.57;;;5.18;;
50779;SDS011;36748;37.428;-121.972;2022-09-06T07:11:05;8.30;;;4.43;;
50779;SDS011;36748;37.428;-121.972;2022-09-06T07:13:34;8.75;;;4.50;;
50779;SDS011;36748;37.428;-121.972;2022-09-06T07:16:07;5.65;;;4.25;;
50779;SDS011;36748;37.428;-121.972;2022-09-06T07:18:49;8.20;;;4.32;;
50779;SDS011;36748;37.428;-121.972;2022-09-06T07:21:17;6.97;;;4.53;;
50779;SDS011;36748;37.428;-121.972;2022-09-06T07:23:44;7.13;;;4.28;;
50779;SDS011;36748;37.428;-121.972;2022-09-06T07:26:14;8.40;;;4.53;;
50779;SDS011;36748;37.428;-121.972;2022-09-06T07:28:41;7.68;;;4.50;;
50779;SDS011;36748;37.428;-121.972;2022-09-06T07:31:08;6.75;;;4.47;;
50779;SDS011;36748;37.428;-121.972;2022-09-06T07:33:35;7.50;;;4.10;;
50779;SDS011;36748;37.428;-121.972;2022-09-06T07:36:03;6.85;;;4.22;;
50779;SDS011;36748;37.428;-121.972;2022-09-06T07:38:30;11.98;;;4.30;;
50779;SDS011;36748;37.428;-121.972;2022-09-06T07:40:58;7.32;;;4.28;;
50779;SDS011;36748;37.428;-121.972;2022-09-06T07:43:25;7.75;;;4.43;;
50779;SDS011;36748;37.428;-121.972;2022-09-06T07:48:26;9.60;;;4.70;;
50779;SDS011;36748;37.428;-121.972;2022-09-06T07:50:53;7.57;;;4.45;;
50779;SDS011;36748;37.428;-121.972;2022-09-06T07:53:19;8.18;;;4.38;;
50779;SDS011;36748;37.428;-121.972;2022-09-06T07:55:45;8.55;;;4.80;;
50779;SDS011;36748;37.428;-121.972;2022-09-06T07:58:11;9.77;;;5.00;;
50779;SDS011;36748;37.428;-121.972;2022-09-06T08:00:37;7.70;;;4.20;;
50779;SDS011;36748;37.428;-121.972;2022-09-06T08:03:05;7.45;;;4.22;;
50779;SDS011;36748;37.428;-121.972;2022-09-06T08:05:31;9.27;;;4.50;;
50779;SDS011;36748;37.428;-121.972;2022-09-06T08:07:57;6.93;;;4.50;;
50779;SDS011;36748;37.428;-121.972;2022-09-06T08:10:24;6.82;;;4.28;;
50779;SDS011;36748;37.428;-121.972;2022-09-06T08:12:54;7.85;;;4.60;;
50779;SDS011;36748;37.428;-121.972;2022-09-06T08:15:21;7.43;;;4.30;;
50779;SDS011;36748;37.428;-121.972;2022-09-06T08:17:47;8.45;;;4.75;;
50779;SDS011;36748;37.428;-121.972;2022-09-06T08:20:14;11.30;;;4.28;;
50779;SDS011;36748;37.428;-121.972;2022-09-06T08:22:41;9.18;;;4.78;;
50779;SDS011;36748;37.428;-121.972;2022-09-06T08:25:07;10.35;;;5.00;;
50779;SDS011;36748;37.428;-121.972;2022-09-06T08:27:34;7.70;;;4.30;;
50779;SDS011;36748;37.428;-121.972;2022-09-06T08:30:01;7.85;;;4.40;;
50779;SDS011;36748;37.428;-121.972;2022-09-06T08:32:27;8.68;;;4.70;;
50779;SDS011;36748;37.428;-121.972;2022-09-06T08:34:53;6.47;;;4.28;;
50779;SDS011;36748;37.428;-121.972;2022-09-06T08:37:19;6.53;;;4.35;;
50779;SDS011;36748;37.428;-121.972;2022-09-06T08:39:46;10.02;;;4.75;;
50779;SDS011;36748;37.428;-121.972;2022-09-06T08:42:12;7.25;;;4.80;;
50779;SDS011;36748;37.428;-121.972;2022-09-06T08:47:13;6.35;;;3.92;;
50779;SDS011;36748;37.428;-121.972;2022-09-06T08:49:43;7.00;;;4.28;;
50779;SDS011;36748;37.428;-121.972;2022-09-06T09:00:16;6.00;;;4.22;;
50779;SDS011;36748;37.428;-121.972;2022-09-06T09:02:54;11.05;;;4.70;;
50779;SDS011;36748;37.428;-121.972;2022-09-06T09:05:42;6.70;;;4.15;;
50779;SDS011;36748;37.428;-121.972;2022-09-06T09:08:17;8.30;;;4.85;;
50779;SDS011;36748;37.428;-121.972;2022-09-06T09:15:58;7.53;;;4.30;;
50779;SDS011;36748;37.428;-121.972;2022-09-06T09:18:26;6.70;;;4.20;;
50779;SDS011;36748;37.428;-121.972;2022-09-06T09:20:54;10.80;;;4.57;;
50779;SDS011;36748;37.428;-121.972;2022-09-06T09:23:20;8.85;;;4.43;;
50779;SDS011;36748;37.428;-121.972;2022-09-06T09:25:47;7.13;;;4.53;;
50779;SDS011;36748;37.428;-121.972;2022-09-06T09:28:18;8.63;;;4.70;;
50779;SDS011;36748;37.428;-121.972;2022-09-06T09:30:48;10.43;;;3.78;;
50779;SDS011;36748;37.428;-121.972;2022-09-06T09:33:22;7.65;;;4.20;;
50779;SDS011;36748;37.428;-121.972;2022-09-06T09:35:49;7.22;;;4.30;;
50779;SDS011;36748;37.428;-121.972;2022-09-06T09:38:20;7.57;;;4.93;;
50779;SDS011;36748;37.428;-121.972;2022-09-06T09:40:53;7.88;;;4.43;;
50779;SDS011;36748;37.428;-121.972;2022-09-06T09:43:33;10.15;;;5.53;;
50779;SDS011;36748;37.428;-121.972;2022-09-06T09:48:43;10.23;;;5.18;;
50779;SDS011;36748;37.428;-121.972;2022-09-06T09:51:31;11.95;;;5.38;;
50779;SDS011;36748;37.428;-121.972;2022-09-06T09:54:08;13.73;;;5.25;;
50779;SDS011;36748;37.428;-121.972;2022-09-06T09:59:23;11.32;;;5.43;;
50779;SDS011;36748;37.428;-121.972;2022-09-06T10:01:51;11.82;;;5.18;;
50779;SDS011;36748;37.428;-121.972;2022-09-06T10:04:31;12.55;;;5.78;;
50779;SDS011;36748;37.428;-121.972;2022-09-06T10:07:12;10.75;;;5.07;;
50779;SDS011;36748;37.428;-121.972;2022-09-06T10:09:41;10.73;;;5.20;;
50779;SDS011;36748;37.428;-121.972;2022-09-06T10:12:17;10.60;;;5.13;;
50779;SDS011;36748;37.428;-121.972;2022-09-06T10:14:53;9.85;;;4.97;;
50779;SDS011;36748;37.428;-121.972;2022-09-06T10:17:22;11.60;;;5.40;;
50779;SDS011;36748;37.428;-121.972;2022-09-06T10:20:00;8.63;;;4.70;;
50779;SDS011;36748;37.428;-121.972;2022-09-06T10:22:34;9.77;;;5.10;;
50779;SDS011;36748;37.428;-121.972;2022-09-06T10:30:16;15.63;;;5.70;;
50779;SDS011;36748;37.428;-121.972;2022-09-06T10:32:47;13.63;;;5.47;;
50779;SDS011;36748;37.428;-121.972;2022-09-06T10:40:55;12.45;;;5.63;;
50779;SDS011;36748;37.428;-121.972;2022-09-06T10:43:59;12.55;;;5.65;;
50779;SDS011;36748;37.428;-121.972;2022-09-06T10:46:33;20.02;;;6.18;;
50779;SDS011;36748;37.428;-121.972;2022-09-06T10:49:01;13.63;;;5.80;;
50779;SDS011;36748;37.428;-121.972;2022-09-06T10:54:31;13.65;;;6.28;;
50779;SDS011;36748;37.428;-121.972;2022-09-06T10:57:02;13.88;;;5.60;;
50779;SDS011;36748;37.428;-121.972;2022-09-06T11:05:10;13.23;;;5.30;;
50779;SDS011;36748;37.428;-121.972;2022-09-06T11:07:41;10.05;;;5.35;;
50779;SDS011;36748;37.428;-121.972;2022-09-06T11:10:11;15.30;;;5.38;;
50779;SDS011;36748;37.428;-121.972;2022-09-06T11:15:54;12.52;;;5.78;;
50779;SDS011;36748;37.428;-121.972;2022-09-06T11:18:33;12.95;;;5.57;;
50779;SDS011;36748;37.428;-121.972;2022-09-06T11:23:47;13.00;;;5.65;;
50779;SDS011;36748;37.428;-121.972;2022-09-06T11:26:32;16.30;;;6.22;;
50779;SDS011;36748;37.428;-121.972;2022-09-06T11:29:03;15.57;;;5.40;;
50779;SDS011;36748;37.428;-121.972;2022-09-06T11:31:34;18.00;;;6.55;;
50779;SDS011;36748;37.428;-121.972;2022-09-06T11:34:24;19.00;;;5.82;;
50779;SDS011;36748;37.428;-121.972;2022-09-06T11:36:55;15.68;;;6.38;;
50779;SDS011;36748;37.428;-121.972;2022-09-06T11:39:25;17.30;;;6.10;;
50779;SDS011;36748;37.428;-121.972;2022-09-06T11:41:56;14.15;;;6.07;;
50779;SDS011;36748;37.428;-121.972;2022-09-06T11:55:22;11.32;;;5.50;;
50779;SDS011;36748;37.428;-121.972;2022-09-06T11:58:10;11.70;;;5.47;;
50779;SDS011;36748;37.428;-121.972;2022-09-06T12:08:45;14.55;;;5.35;;
50779;SDS011;36748;37.428;-121.972;2022-09-06T12:14:05;12.63;;;5.50;;
50779;SDS011;36748;37.428;-121.972;2022-09-06T12:27:33;11.25;;;5.20;;
50779;SDS011;36748;37.428;-121.972;2022-09-06T12:32:39;13.65;;;5.32;;
50779;SDS011;36748;37.428;-121.972;2022-09-06T12:35:14;13.27;;;5.60;;
50779;SDS011;36748;37.428;-121.972;2022-09-06T12:37:55;14.05;;;5.93;;
50779;SDS011;36748;37.428;-121.972;2022-09-06T12:40:32;18.77;;;5.95;;
50779;SDS011;36748;37.428;-121.972;2022-09-06T12:43:03;11.13;;;5.60;;
50779;SDS011;36748;37.428;-121.972;2022-09-06T12:45:29;16.55;;;6.03;;
50779;SDS011;36748;37.428;-121.972;2022-09-06T12:48:06;17.65;;;6.70;;
50779;SDS011;36748;37.428;-121.972;2022-09-06T12:50:34;18.13;;;6.38;;
50779;SDS011;36748;37.428;-121.972;2022-09-06T12:53:01;21.25;;;6.07;;
50779;SDS011;36748;37.428;-121.972;2022-09-06T12:55:35;28.30;;;7.43;;
50779;SDS011;36748;37.428;-121.972;2022-09-06T12:58:03;22.73;;;7.00;;
50779;SDS011;36748;37.428;-121.972;2022-09-06T13:00:47;19.13;;;7.07;;
50779;SDS011;36748;37.428;-121.972;2022-09-06T13:03:26;24.13;;;7.43;;
50779;SDS011;36748;37.428;-121.972;2022-09-06T13:05:55;25.73;;;7.18;;
50779;SDS011;36748;37.428;-121.972;2022-09-06T13:08:44;21.35;;;7.30;;
50779;SDS011;36748;37.428;-121.972;2022-09-06T13:11:12;19.33;;;7.07;;
50779;SDS011;36748;37.428;-121.972;2022-09-06T13:13:47;26.63;;;8.13;;
50779;SDS011;36748;37.428;-121.972;2022-09-06T13:16:18;25.40;;;8.25;;
50779;SDS011;36748;37.428;-121.972;2022-09-06T13:18:48;23.30;;;7.97;;
50779;SDS011;36748;37.428;-121.972;2022-09-06T13:21:25;22.60;;;7.50;;
50779;SDS011;36748;37.428;-121.972;2022-09-06T13:23:54;25.27;;;7.55;;
50779;SDS011;36748;37.428;-121.972;2022-09-06T13:26:36;26.90;;;8.48;;
50779;SDS011;36748;37.428;-121.972;2022-09-06T13:29:10;23.50;;;8.05;;
50779;SDS011;36748;37.428;-121.972;2022-09-06T13:31:37;30.98;;;8.50;;
50779;SDS011;36748;37.428;-121.972;2022-09-06T13:34:03;34.60;;;8.90;;
50779;SDS011;36748;37.428;-121.972;2022-09-06T13:36:29;30.15;;;8.73;;
50779;SDS011;36748;37.428;-121.972;2022-09-06T13:38:57;33.28;;;9.05;;
50779;SDS011;36748;37.428;-121.972;2022-09-06T13:46:30;26.80;;;8.35;;
50779;SDS011;36748;37.428;-121.972;2022-09-06T13:48:57;25.75;;;7.85;;
50779;SDS011;36748;37.428;-121.972;2022-09-06T13:51:23;30.63;;;8.30;;
50779;SDS011;36748;37.428;-121.972;2022-09-06T13:54:10;24.50;;;8.73;;
50779;SDS011;36748;37.428;-121.972;2022-09-06T13:56:38;38.10;;;9.47;;
50779;SDS011;36748;37.428;-121.972;2022-09-06T13:59:06;40.10;;;8.80;;
50779;SDS011;36748;37.428;-121.972;2022-09-06T14:01:34;41.97;;;10.00;;
50779;SDS011;36748;37.428;-121.972;2022-09-06T14:04:01;51.15;;;10.00;;
50779;SDS011;36748;37.428;-121.972;2022-09-06T14:06:27;32.13;;;8.40;;
50779;SDS011;36748;37.428;-121.972;2022-09-06T14:08:54;37.47;;;9.43;;
50779;SDS011;36748;37.428;-121.972;2022-09-06T14:11:20;35.08;;;9.10;;
50779;SDS011;36748;37.428;-121.972;2022-09-06T14:13:46;34.15;;;9.20;;
50779;SDS011;36748;37.428;-121.972;2022-09-06T14:16:12;33.58;;;9.15;;
50779;SDS011;36748;37.428;-121.972;2022-09-06T14:18:39;34.53;;;9.27;;
50779;SDS011;36748;37.428;-121.972;2022-09-06T14:21:05;26.73;;;8.90;;
50779;SDS011;36748;37.428;-121.972;2022-09-06T14:23:32;29.42;;;8.75;;
50779;SDS011;36748;37.428;-121.972;2022-09-06T14:25:58;29.10;;;8.38;;
50779;SDS011;36748;37.428;-121.972;2022-09-06T14:28:26;21.60;;;7.95;;
50779;SDS011;36748;37.428;-121.972;2022-09-06T14:30:52;23.90;;;7.93;;
50779;SDS011;36748;37.428;-121.972;2022-09-06T14:33:19;23.13;;;8.05;;
50779;SDS011;36748;37.428;-121.972;2022-09-06T14:35:45;27.63;;;7.75;;
50779;SDS011;36748;37.428;-121.972;2022-09-06T14:38:15;23.02;;;7.85;;
50779;SDS011;36748;37.428;-121.972;2022-09-06T14:40:41;20.20;;;7.45;;
50779;SDS011;36748;37.428;-121.972;2022-09-06T14:43:13;25.45;;;8.68;;
50779;SDS011;36748;37.428;-121.972;2022-09-06T14:45:40;24.40;;;7.55;;
50779;SDS011;36748;37.428;-121.972;2022-09-06T14:48:06;24.58;;;8.38;;
50779;SDS011;36748;37.428;-121.972;2022-09-06T14:50:32;22.70;;;7.93;;
50779;SDS011;36748;37.428;-121.972;2022-09-06T14:52:58;21.75;;;8.70;;
50779;SDS011;36748;37.428;-121.972;2022-09-06T14:55:24;24.27;;;7.75;;
50779;SDS011;36748;37.428;-121.972;2022-09-06T14:57:52;27.83;;;8.38;;
50779;SDS011;36748;37.428;-121.972;2022-09-06T15:00:18;24.73;;;8.88;;
50779;SDS011;36748;37.428;-121.972;2022-09-06T15:02:44;22.17;;;7.88;;
50779;SDS011;36748;37.428;-121.972;2022-09-06T15:05:10;27.40;;;7.82;;
50779;SDS011;36748;37.428;-121.972;2022-09-06T15:07:37;25.17;;;8.00;;
50779;SDS011;36748;37.428;-121.972;2022-09-06T15:10:03;27.50;;;8.45;;
50779;SDS011;36748;37.428;-121.972;2022-09-06T15:12:29;24.77;;;7.95;;
50779;SDS011;36748;37.428;-121.972;2022-09-06T15:14:56;28.30;;;8.52;;
50779;SDS011;36748;37.428;-121.972;2022-09-06T15:17:22;24.67;;;7.57;;
50779;SDS011;36748;37.428;-121.972;2022-09-06T15:19:48;28.35;;;8.95;;
50779;SDS011;36748;37.428;-121.972;2022-09-06T15:22:14;24.98;;;8.07;;
50779;SDS011;36748;37.428;-121.972;2022-09-06T15:24:41;29.95;;;8.85;;
50779;SDS011;36748;37.428;-121.972;2022-09-06T15:27:07;22.08;;;8.05;;
50779;SDS011;36748;37.428;-121.972;2022-09-06T15:29:33;22.98;;;7.88;;
50779;SDS011;36748;37.428;-121.972;2022-09-06T15:31:59;23.20;;;8.10;;
50779;SDS011;36748;37.428;-121.972;2022-09-06T15:34:25;22.50;;;8.20;;
50779;SDS011;36748;37.428;-121.972;2022-09-06T15:36:51;27.75;;;9.05;;
50779;SDS011;36748;37.428;-121.972;2022-09-06T15:39:18;31.00;;;9.32;;
50779;SDS011;36748;37.428;-121.972;2022-09-06T15:41:44;26.92;;;8.48;;
50779;SDS011;36748;37.428;-121.972;2022-09-06T15:44:12;21.90;;;7.63;;
50779;SDS011;36748;37.428;-121.972;2022-09-06T15:46:44;24.23;;;8.05;;
50779;SDS011;36748;37.428;-121.972;2022-09-06T15:49:18;23.70;;;8.35;;
50779;SDS011;36748;37.428;-121.972;2022-09-06T15:51:49;26.20;;;8.10;;
50779;SDS011;36748;37.428;-121.972;2022-09-06T15:54:16;24.15;;;8.07;;
50779;SDS011;36748;37.428;-121.972;2022-09-06T15:56:43;25.10;;;8.85;;
50779;SDS011;36748;37.428;-121.972;2022-09-06T15:59:10;21.80;;;8.60;;
50779;SDS011;36748;37.428;-121.972;2022-09-06T16:01:37;23.52;;;7.88;;
50779;SDS011;36748;37.428;-121.972;2022-09-06T16:04:04;22.63;;;7.75;;
50779;SDS011;36748;37.428;-121.972;2022-09-06T16:06:32;22.25;;;8.35;;
50779;SDS011;36748;37.428;-121.972;2022-09-06T16:09:02;25.90;;;8.20;;
50779;SDS011;36748;37.428;-121.972;2022-09-06T16:11:30;19.42;;;7.18;;
50779;SDS011;36748;37.428;-121.972;2022-09-06T16:13:57;21.58;;;7.88;;
50779;SDS011;36748;37.428;-121.972;2022-09-06T16:16:23;21.58;;;8.40;;
50779;SDS011;36748;37.428;-121.972;2022-09-06T16:18:50;26.25;;;8.00;;
50779;SDS011;36748;37.428;-121.972;2022-09-06T16:21:20;23.48;;;7.78;;
50779;SDS011;36748;37.428;-121.972;2022-09-06T16:23:52;20.52;;;7.57;;